Hamilton, ND (58238)

1:23 PM CST on February 21, 2017 (GMT -0600)
Cavalier | | Change Station

Elev 892 ft 48.78 °N, 97.63 °W | Updated 8 minutes ago

Mostly Cloudy
Mostly Cloudy
32 °F
Feels Like 29 °F
N
4
Wind Variable Wind from North

Today
High -- | Low -- °F
--% Chance of Precip.
Yesterday
High -- | Low -- °F
Precip. -- in
Pressure 29.68 in
Visibility 0.2 miles
Clouds Overcast 100 ft
Windchill 29 °F
Dew Point 32 °F
Humidity 100%
Rainfall 0.00 in
Snow Depth Not available.
7:26 AM 6:01 PM
Waning Crescent, 23% visible
METAR K2C8 211915Z AUTO 35003KT 1/4SM FG OVC001 00/00 A2968 RMK AO2
Pressure 29.68 in
Visibility 0.2 miles
Clouds Overcast 100 ft
Windchill 29 °F
Dew Point 32 °F
Humidity 100%
Rainfall 0.00 in
Snow Depth Not available.
7:26 AM 6:01 PM
Waning Crescent, 23% visible
METAR K2C8 211915Z AUTO 35003KT 1/4SM FG OVC001 00/00 A2968 RMK AO2

Get Your Daily Forecast Email!

Thanks for signing up!

Be on the lookout for a verification email in your inbox.

You'll start receiving the daily forecast at 8 AM.

×

10-Day Weather Forecast

Almanac

Astronomy

Feb. 21, 2017 Rise Set
Actual Time
Civil Twilight
Nautical Twilight
Astronomical Twilight
Moon
Length of Visible Light
Length of Day
Tomorrow will be .
, % of the Moon is Illuminated

Today's Extremes

State Highs State Lows

Community

WunderPhotos

Upload Photos

1,962,540 photos uploaded!

WunderBlog® & News

Nearby

Air Quality

  Air Quality AQ Index Pollutant
Not available.

Snow Depth

Station Depth Elevation

Earthquake Activity

City Distance Mag. Time & Date
Minimum magnitude displayed is 2.5.

Coastal Water Temperatures

Place Temperature

Stations

Nearby Weather Stations

Station Location Temp. Windchill Dew Point Humidity Wind Precip. Elev Updated Type
                   

Watches & Warnings

There are currently no watches in effect.